sensor_id;sensor_type;location;lat;lon;timestamp;pressure;altitude;pressure_sealevel;temperature;humidity
12213;BME280;6169;44.158;22.788;2023-03-11T00:02:05;99098.09;;;13.63;72.66
12213;BME280;6169;44.158;22.788;2023-03-11T00:07:08;99105.81;;;13.55;72.34
12213;BME280;6169;44.158;22.788;2023-03-11T00:12:11;99058.69;;;13.50;71.92
12213;BME280;6169;44.158;22.788;2023-03-11T00:17:15;99096.31;;;13.72;71.42
12213;BME280;6169;44.158;22.788;2023-03-11T00:22:17;99093.56;;;14.10;70.05
12213;BME280;6169;44.158;22.788;2023-03-11T00:27:19;99087.44;;;13.99;70.76
12213;BME280;6169;44.158;22.788;2023-03-11T00:32:23;99082.78;;;13.99;70.89
12213;BME280;6169;44.158;22.788;2023-03-11T00:37:25;99085.28;;;14.15;70.32
12213;BME280;6169;44.158;22.788;2023-03-11T00:42:27;99066.47;;;13.94;70.29
12213;BME280;6169;44.158;22.788;2023-03-11T00:47:31;99058.34;;;13.75;71.66
12213;BME280;6169;44.158;22.788;2023-03-11T00:52:34;99058.34;;;13.75;71.31
12213;BME280;6169;44.158;22.788;2023-03-11T00:57:36;99051.69;;;13.81;71.26
12213;BME280;6169;44.158;22.788;2023-03-11T01:02:41;99030.66;;;13.63;71.42
12213;BME280;6169;44.158;22.788;2023-03-11T01:07:43;99033.91;;;13.84;71.14
12213;BME280;6169;44.158;22.788;2023-03-11T01:12:46;99029.53;;;13.83;70.84
12213;BME280;6169;44.158;22.788;2023-03-11T01:17:50;99019.91;;;13.86;70.84
12213;BME280;6169;44.158;22.788;2023-03-11T01:22:52;99014.47;;;13.67;70.76
12213;BME280;6169;44.158;22.788;2023-03-11T01:27:55;99018.00;;;13.86;70.89
12213;BME280;6169;44.158;22.788;2023-03-11T01:32:58;99014.78;;;13.84;70.37
12213;BME280;6169;44.158;22.788;2023-03-11T01:38:01;99015.06;;;13.31;71.10
12213;BME280;6169;44.158;22.788;2023-03-11T01:43:05;99022.19;;;13.27;72.57
12213;BME280;6169;44.158;22.788;2023-03-11T01:48:09;99018.56;;;13.50;71.82
12213;BME280;6169;44.158;22.788;2023-03-11T01:53:12;99019.06;;;13.52;72.17
12213;BME280;6169;44.158;22.788;2023-03-11T01:58:18;99016.13;;;13.30;72.55
12213;BME280;6169;44.158;22.788;2023-03-11T02:03:27;99014.59;;;13.43;72.09
12213;BME280;6169;44.158;22.788;2023-03-11T02:08:30;99033.31;;;13.49;72.75
12213;BME280;6169;44.158;22.788;2023-03-11T02:13:35;99034.56;;;13.38;72.30
12213;BME280;6169;44.158;22.788;2023-03-11T02:18:40;99043.53;;;13.25;73.09
12213;BME280;6169;44.158;22.788;2023-03-11T02:23:48;99044.09;;;13.41;72.25
12213;BME280;6169;44.158;22.788;2023-03-11T02:28:55;99053.22;;;13.50;71.87
12213;BME280;6169;44.158;22.788;2023-03-11T02:34:01;99060.84;;;13.34;73.51
12213;BME280;6169;44.158;22.788;2023-03-11T02:39:04;99059.00;;;13.10;75.12
12213;BME280;6169;44.158;22.788;2023-03-11T02:44:10;99066.97;;;13.45;73.56
12213;BME280;6169;44.158;22.788;2023-03-11T02:49:13;99066.97;;;13.26;73.51
12213;BME280;6169;44.158;22.788;2023-03-11T02:54:16;99064.91;;;13.18;74.75
12213;BME280;6169;44.158;22.788;2023-03-11T02:59:20;99045.38;;;13.10;74.50
12213;BME280;6169;44.158;22.788;2023-03-11T03:04:22;99055.94;;;13.69;72.62
12213;BME280;6169;44.158;22.788;2023-03-11T03:09:25;99067.19;;;13.48;73.54
12213;BME280;6169;44.158;22.788;2023-03-11T03:14:28;99064.44;;;13.29;73.37
12213;BME280;6169;44.158;22.788;2023-03-11T03:19:31;99066.91;;;13.31;73.66
12213;BME280;6169;44.158;22.788;2023-03-11T03:24:33;99063.72;;;13.24;73.47
12213;BME280;6169;44.158;22.788;2023-03-11T03:29:37;99065.94;;;13.41;73.13
12213;BME280;6169;44.158;22.788;2023-03-11T03:34:39;99057.94;;;13.44;73.11
12213;BME280;6169;44.158;22.788;2023-03-11T03:39:41;99057.81;;;13.54;72.75
12213;BME280;6169;44.158;22.788;2023-03-11T03:44:45;99072.41;;;13.64;71.87
12213;BME280;6169;44.158;22.788;2023-03-11T03:49:48;99069.06;;;13.67;71.00
12213;BME280;6169;44.158;22.788;2023-03-11T03:54:50;99057.88;;;13.87;70.54
12213;BME280;6169;44.158;22.788;2023-03-11T03:59:54;99051.25;;;13.74;70.41
12213;BME280;6169;44.158;22.788;2023-03-11T04:04:56;99055.44;;;13.67;71.03
12213;BME280;6169;44.158;22.788;2023-03-11T04:09:59;99049.59;;;13.92;68.67
12213;BME280;6169;44.158;22.788;2023-03-11T04:15:03;99048.28;;;13.71;69.13
12213;BME280;6169;44.158;22.788;2023-03-11T04:20:07;98944.19;;;13.07;67.62
12213;BME280;6169;44.158;22.788;2023-03-11T04:25:10;99053.81;;;13.85;66.80
12213;BME280;6169;44.158;22.788;2023-03-11T04:30:14;99054.34;;;13.68;67.54
12213;BME280;6169;44.158;22.788;2023-03-11T04:35:16;99046.16;;;13.68;66.75
12213;BME280;6169;44.158;22.788;2023-03-11T04:40:19;99040.38;;;13.69;67.00
12213;BME280;6169;44.158;22.788;2023-03-11T04:45:22;99036.22;;;13.72;66.60
12213;BME280;6169;44.158;22.788;2023-03-11T04:50:25;99036.50;;;13.75;66.55
12213;BME280;6169;44.158;22.788;2023-03-11T04:55:27;99046.69;;;13.32;68.59
12213;BME280;6169;44.158;22.788;2023-03-11T05:00:31;99049.03;;;12.77;70.68
12213;BME280;6169;44.158;22.788;2023-03-11T05:05:33;99062.69;;;12.77;70.19
12213;BME280;6169;44.158;22.788;2023-03-11T05:10:36;99053.69;;;12.52;71.19
12213;BME280;6169;44.158;22.788;2023-03-11T05:15:40;99066.78;;;12.98;69.38
12213;BME280;6169;44.158;22.788;2023-03-11T05:20:42;99060.97;;;12.86;69.83
12213;BME280;6169;44.158;22.788;2023-03-11T05:25:44;99072.88;;;12.90;70.12
12213;BME280;6169;44.158;22.788;2023-03-11T05:30:48;99067.97;;;12.92;69.72
12213;BME280;6169;44.158;22.788;2023-03-11T05:35:51;99059.88;;;13.06;68.76
12213;BME280;6169;44.158;22.788;2023-03-11T05:40:53;99065.84;;;13.46;67.39
12213;BME280;6169;44.158;22.788;2023-03-11T05:45:57;99072.88;;;13.14;67.68
12213;BME280;6169;44.158;22.788;2023-03-11T05:50:59;99058.00;;;13.01;68.58
12213;BME280;6169;44.158;22.788;2023-03-11T05:56:01;99065.78;;;14.02;65.73
12213;BME280;6169;44.158;22.788;2023-03-11T06:01:08;99074.28;;;13.30;67.21
12213;BME280;6169;44.158;22.788;2023-03-11T06:06:12;99065.63;;;13.23;67.39
12213;BME280;6169;44.158;22.788;2023-03-11T06:11:15;98948.28;;;12.66;67.23
12213;BME280;6169;44.158;22.788;2023-03-11T06:16:20;99069.88;;;12.91;69.70
12213;BME280;6169;44.158;22.788;2023-03-11T06:21:23;99009.16;;;12.38;69.12
12213;BME280;6169;44.158;22.788;2023-03-11T06:26:34;99076.75;;;13.27;68.04
12213;BME280;6169;44.158;22.788;2023-03-11T06:31:37;99084.16;;;12.83;68.87
12213;BME280;6169;44.158;22.788;2023-03-11T06:36:41;99081.13;;;12.85;69.81
12213;BME280;6169;44.158;22.788;2023-03-11T06:41:43;99080.75;;;13.34;67.35
12213;BME280;6169;44.158;22.788;2023-03-11T06:46:47;99090.25;;;12.99;69.03
12213;BME280;6169;44.158;22.788;2023-03-11T06:51:49;99083.78;;;13.52;68.28
12213;BME280;6169;44.158;22.788;2023-03-11T06:56:51;99095.28;;;13.68;66.52
12213;BME280;6169;44.158;22.788;2023-03-11T07:01:55;99088.88;;;13.40;67.64
12213;BME280;6169;44.158;22.788;2023-03-11T07:06:58;99091.81;;;13.43;67.48
12213;BME280;6169;44.158;22.788;2023-03-11T07:12:00;99097.84;;;13.21;65.91
12213;BME280;6169;44.158;22.788;2023-03-11T07:17:04;99104.44;;;13.20;65.78
12213;BME280;6169;44.158;22.788;2023-03-11T07:22:06;98998.69;;;12.69;66.09
12213;BME280;6169;44.158;22.788;2023-03-11T07:27:09;99071.47;;;13.17;64.98
12213;BME280;6169;44.158;22.788;2023-03-11T07:32:12;99050.88;;;13.24;67.31
12213;BME280;6169;44.158;22.788;2023-03-11T07:37:15;99042.53;;;13.53;66.48
12213;BME280;6169;44.158;22.788;2023-03-11T07:42:17;99031.44;;;13.64;65.16
12213;BME280;6169;44.158;22.788;2023-03-11T07:47:21;99023.84;;;13.79;63.52
12213;BME280;6169;44.158;22.788;2023-03-11T07:52:24;99041.00;;;13.99;61.86
12213;BME280;6169;44.158;22.788;2023-03-11T07:57:26;99049.44;;;14.16;63.32
12213;BME280;6169;44.158;22.788;2023-03-11T08:02:30;99040.66;;;14.33;61.93
12213;BME280;6169;44.158;22.788;2023-03-11T08:07:33;99028.28;;;14.08;56.11
12213;BME280;6169;44.158;22.788;2023-03-11T08:12:35;99022.75;;;14.27;54.15
12213;BME280;6169;44.158;22.788;2023-03-11T08:17:39;99028.16;;;15.10;54.00
12213;BME280;6169;44.158;22.788;2023-03-11T08:22:41;99036.44;;;14.82;51.55
12213;BME280;6169;44.158;22.788;2023-03-11T08:27:43;99048.97;;;15.11;50.71
12213;BME280;6169;44.158;22.788;2023-03-11T08:32:47;99062.06;;;14.86;51.28
12213;BME280;6169;44.158;22.788;2023-03-11T08:37:50;99059.22;;;14.91;51.96
12213;BME280;6169;44.158;22.788;2023-03-11T08:42:54;99045.22;;;14.93;51.50
12213;BME280;6169;44.158;22.788;2023-03-11T08:47:59;99028.34;;;15.27;51.11
12213;BME280;6169;44.158;22.788;2023-03-11T08:53:01;99030.91;;;15.10;52.40
12213;BME280;6169;44.158;22.788;2023-03-11T08:58:04;99050.63;;;15.71;49.42
12213;BME280;6169;44.158;22.788;2023-03-11T09:03:08;99050.38;;;15.58;47.02
12213;BME280;6169;44.158;22.788;2023-03-11T09:08:11;99046.09;;;15.52;48.36
12213;BME280;6169;44.158;22.788;2023-03-11T09:13:13;99051.75;;;15.70;47.47
12213;BME280;6169;44.158;22.788;2023-03-11T09:18:17;99049.25;;;15.59;46.92
12213;BME280;6169;44.158;22.788;2023-03-11T09:23:19;99063.47;;;14.98;46.51
12213;BME280;6169;44.158;22.788;2023-03-11T09:28:22;99078.25;;;15.10;45.78
12213;BME280;6169;44.158;22.788;2023-03-11T09:33:26;99061.78;;;15.24;45.64
12213;BME280;6169;44.158;22.788;2023-03-11T09:38:28;99072.09;;;15.05;46.50
12213;BME280;6169;44.158;22.788;2023-03-11T09:49:03;99080.72;;;16.38;44.42
12213;BME280;6169;44.158;22.788;2023-03-11T09:54:11;99071.06;;;16.81;44.14
12213;BME280;6169;44.158;22.788;2023-03-11T09:59:17;99071.97;;;16.36;45.32
12213;BME280;6169;44.158;22.788;2023-03-11T10:04:25;99051.47;;;16.34;44.93
12213;BME280;6169;44.158;22.788;2023-03-11T10:09:33;99066.19;;;16.69;43.94
12213;BME280;6169;44.158;22.788;2023-03-11T10:14:50;99069.72;;;15.85;43.01
12213;BME280;6169;44.158;22.788;2023-03-11T10:19:59;99065.50;;;16.63;41.50
12213;BME280;6169;44.158;22.788;2023-03-11T10:25:10;99072.41;;;16.52;41.08
12213;BME280;6169;44.158;22.788;2023-03-11T10:30:22;99073.06;;;16.26;40.46
12213;BME280;6169;44.158;22.788;2023-03-11T10:35:33;99072.25;;;16.48;39.39
12213;BME280;6169;44.158;22.788;2023-03-11T10:40:40;99077.25;;;16.55;39.59
12213;BME280;6169;44.158;22.788;2023-03-11T10:45:43;99069.06;;;16.33;39.85
12213;BME280;6169;44.158;22.788;2023-03-11T10:50:56;99068.19;;;16.46;39.03
12213;BME280;6169;44.158;22.788;2023-03-11T10:55:59;99066.19;;;16.07;40.22
12213;BME280;6169;44.158;22.788;2023-03-11T11:01:04;99063.56;;;15.79;39.17
12213;BME280;6169;44.158;22.788;2023-03-11T11:06:19;99065.41;;;16.15;40.32
12213;BME280;6169;44.158;22.788;2023-03-11T11:11:23;99056.78;;;15.99;41.76
12213;BME280;6169;44.158;22.788;2023-03-11T11:16:26;99044.69;;;15.55;42.95
12213;BME280;6169;44.158;22.788;2023-03-11T11:21:33;99029.47;;;16.47;42.55
12213;BME280;6169;44.158;22.788;2023-03-11T11:26:37;99028.09;;;16.36;44.22
12213;BME280;6169;44.158;22.788;2023-03-11T11:31:41;99027.00;;;16.77;42.81
12213;BME280;6169;44.158;22.788;2023-03-11T11:36:45;99013.72;;;16.79;42.51
12213;BME280;6169;44.158;22.788;2023-03-11T11:41:49;99031.88;;;17.15;38.78
12213;BME280;6169;44.158;22.788;2023-03-11T11:46:55;99037.75;;;17.57;36.17
12213;BME280;6169;44.158;22.788;2023-03-11T11:52:05;99045.94;;;16.56;37.81
12213;BME280;6169;44.158;22.788;2023-03-11T11:57:14;99060.25;;;16.13;36.02
12213;BME280;6169;44.158;22.788;2023-03-11T12:02:32;99081.44;;;15.76;37.55
12213;BME280;6169;44.158;22.788;2023-03-11T12:07:51;99091.31;;;15.27;37.13
12213;BME280;6169;44.158;22.788;2023-03-11T12:13:17;99111.78;;;14.14;35.88
12213;BME280;6169;44.158;22.788;2023-03-11T12:18:26;99122.13;;;14.31;36.47
12213;BME280;6169;44.158;22.788;2023-03-11T12:23:39;99122.03;;;13.90;38.59
12213;BME280;6169;44.158;22.788;2023-03-11T12:28:48;99148.41;;;13.56;39.03
12213;BME280;6169;44.158;22.788;2023-03-11T12:33:56;99166.41;;;13.57;39.44
12213;BME280;6169;44.158;22.788;2023-03-11T12:39:04;99179.59;;;13.31;37.53
12213;BME280;6169;44.158;22.788;2023-03-11T12:44:23;99200.63;;;12.78;38.34
12213;BME280;6169;44.158;22.788;2023-03-11T12:49:26;99223.44;;;12.23;39.13
12213;BME280;6169;44.158;22.788;2023-03-11T13:07:57;99282.44;;;12.78;37.11
12213;BME280;6169;44.158;22.788;2023-03-11T13:13:21;99297.78;;;13.03;37.95
12213;BME280;6169;44.158;22.788;2023-03-11T13:18:25;99317.47;;;12.21;37.83
12213;BME280;6169;44.158;22.788;2023-03-11T13:23:33;99316.50;;;11.96;37.22
12213;BME280;6169;44.158;22.788;2023-03-11T13:28:59;99324.34;;;12.03;38.32
12213;BME280;6169;44.158;22.788;2023-03-11T13:34:14;99348.38;;;11.86;35.58
12213;BME280;6169;44.158;22.788;2023-03-11T13:44:57;99388.69;;;11.84;35.00
12213;BME280;6169;44.158;22.788;2023-03-11T13:50:02;99409.97;;;11.46;35.51
12213;BME280;6169;44.158;22.788;2023-03-11T13:55:14;99436.06;;;11.88;35.14
12213;BME280;6169;44.158;22.788;2023-03-11T14:00:21;99428.47;;;11.79;34.73
12213;BME280;6169;44.158;22.788;2023-03-11T14:05:26;99437.31;;;12.26;34.30
12213;BME280;6169;44.158;22.788;2023-03-11T14:10:31;99445.63;;;11.24;35.29
12213;BME280;6169;44.158;22.788;2023-03-11T14:15:43;99442.34;;;11.22;35.13
12213;BME280;6169;44.158;22.788;2023-03-11T14:20:47;99432.25;;;11.84;35.69
12213;BME280;6169;44.158;22.788;2023-03-11T14:25:57;99449.16;;;11.70;37.24
12213;BME280;6169;44.158;22.788;2023-03-11T14:31:02;99468.75;;;11.77;36.32
12213;BME280;6169;44.158;22.788;2023-03-11T14:36:08;99476.38;;;11.60;37.26
12213;BME280;6169;44.158;22.788;2023-03-11T14:41:13;99480.72;;;11.71;36.50
12213;BME280;6169;44.158;22.788;2023-03-11T14:46:21;99498.16;;;11.40;36.60
12213;BME280;6169;44.158;22.788;2023-03-11T14:51:28;99511.50;;;11.62;36.86
12213;BME280;6169;44.158;22.788;2023-03-11T14:56:36;99501.41;;;11.98;36.22
12213;BME280;6169;44.158;22.788;2023-03-11T15:01:42;99501.41;;;11.57;36.49
12213;BME280;6169;44.158;22.788;2023-03-11T15:06:46;99511.50;;;11.56;36.53
12213;BME280;6169;44.158;22.788;2023-03-11T15:11:50;99527.28;;;11.39;35.51
12213;BME280;6169;44.158;22.788;2023-03-11T15:17:09;99516.91;;;11.31;36.21
12213;BME280;6169;44.158;22.788;2023-03-11T15:22:23;99532.88;;;10.91;36.73
12213;BME280;6169;44.158;22.788;2023-03-11T15:27:30;99409.94;;;9.91;36.46
12213;BME280;6169;44.158;22.788;2023-03-11T15:32:39;99556.72;;;10.69;35.78
12213;BME280;6169;44.158;22.788;2023-03-11T15:37:43;99554.94;;;11.00;36.13
12213;BME280;6169;44.158;22.788;2023-03-11T15:42:48;99562.19;;;10.74;37.18
12213;BME280;6169;44.158;22.788;2023-03-11T15:47:52;99560.34;;;10.90;37.92
12213;BME280;6169;44.158;22.788;2023-03-11T15:52:55;99576.13;;;10.40;38.43
12213;BME280;6169;44.158;22.788;2023-03-11T15:58:02;99575.56;;;10.38;38.44
12213;BME280;6169;44.158;22.788;2023-03-11T16:03:08;99607.94;;;10.08;37.95
12213;BME280;6169;44.158;22.788;2023-03-11T16:08:11;99623.53;;;9.85;39.49
12213;BME280;6169;44.158;22.788;2023-03-11T16:13:15;99619.63;;;9.49;39.43
12213;BME280;6169;44.158;22.788;2023-03-11T16:18:20;99636.34;;;9.13;40.38
12213;BME280;6169;44.158;22.788;2023-03-11T16:23:25;99657.50;;;8.95;39.44
12213;BME280;6169;44.158;22.788;2023-03-11T16:28:29;99678.38;;;8.94;39.55
12213;BME280;6169;44.158;22.788;2023-03-11T16:33:34;99690.22;;;9.32;38.17
12213;BME280;6169;44.158;22.788;2023-03-11T16:38:43;99704.44;;;8.78;39.78
12213;BME280;6169;44.158;22.788;2023-03-11T16:43:46;99706.06;;;9.18;40.05
12213;BME280;6169;44.158;22.788;2023-03-11T16:48:51;99719.69;;;8.84;38.95
12213;BME280;6169;44.158;22.788;2023-03-11T16:53:54;99731.38;;;8.51;38.88
12213;BME280;6169;44.158;22.788;2023-03-11T16:58:56;99742.22;;;8.51;39.51
12213;BME280;6169;44.158;22.788;2023-03-11T17:04:03;99754.16;;;8.21;39.95
12213;BME280;6169;44.158;22.788;2023-03-11T17:09:06;99782.66;;;7.95;40.38
12213;BME280;6169;44.158;22.788;2023-03-11T17:14:08;99806.56;;;8.27;39.45
12213;BME280;6169;44.158;22.788;2023-03-11T17:19:12;99814.06;;;8.25;39.22
12213;BME280;6169;44.158;22.788;2023-03-11T17:24:15;99814.41;;;8.29;39.49
12213;BME280;6169;44.158;22.788;2023-03-11T17:29:18;99832.44;;;8.35;40.20
12213;BME280;6169;44.158;22.788;2023-03-11T17:34:22;99827.97;;;8.29;39.80
12213;BME280;6169;44.158;22.788;2023-03-11T17:39:25;99841.78;;;7.87;40.05
12213;BME280;6169;44.158;22.788;2023-03-11T17:44:27;99851.63;;;8.21;40.16
12213;BME280;6169;44.158;22.788;2023-03-11T17:49:32;99861.44;;;8.85;39.21
12213;BME280;6169;44.158;22.788;2023-03-11T17:54:34;99849.84;;;8.56;39.82
12213;BME280;6169;44.158;22.788;2023-03-11T17:59:37;99734.91;;;7.20;41.09
12213;BME280;6169;44.158;22.788;2023-03-11T18:04:40;99869.88;;;8.26;40.95
12213;BME280;6169;44.158;22.788;2023-03-11T18:09:45;99883.13;;;8.39;41.37
12213;BME280;6169;44.158;22.788;2023-03-11T18:14:47;99889.69;;;8.27;41.70
12213;BME280;6169;44.158;22.788;2023-03-11T18:19:52;99888.22;;;7.84;41.81
12213;BME280;6169;44.158;22.788;2023-03-11T18:24:55;99891.41;;;7.81;41.67
12213;BME280;6169;44.158;22.788;2023-03-11T18:29:58;99896.78;;;8.04;40.95
12213;BME280;6169;44.158;22.788;2023-03-11T18:35:03;99899.69;;;8.14;40.88
12213;BME280;6169;44.158;22.788;2023-03-11T18:40:07;99898.25;;;8.35;40.48
12213;BME280;6169;44.158;22.788;2023-03-11T18:45:11;99911.09;;;8.16;40.97
12213;BME280;6169;44.158;22.788;2023-03-11T18:50:16;99934.50;;;8.22;39.70
12213;BME280;6169;44.158;22.788;2023-03-11T18:55:19;99941.22;;;8.20;40.29
12213;BME280;6169;44.158;22.788;2023-03-11T19:00:22;99945.41;;;7.99;41.45
12213;BME280;6169;44.158;22.788;2023-03-11T19:05:27;99958.47;;;7.55;41.17
12213;BME280;6169;44.158;22.788;2023-03-11T19:10:29;99952.25;;;7.66;41.84
12213;BME280;6169;44.158;22.788;2023-03-11T19:15:31;99965.41;;;7.39;42.90
12213;BME280;6169;44.158;22.788;2023-03-11T19:20:35;99972.00;;;7.55;42.34
12213;BME280;6169;44.158;22.788;2023-03-11T19:25:38;99923.44;;;7.37;41.75
12213;BME280;6169;44.158;22.788;2023-03-11T19:30:41;99987.53;;;7.60;41.97
12213;BME280;6169;44.158;22.788;2023-03-11T19:35:50;99998.19;;;6.89;42.38
12213;BME280;6169;44.158;22.788;2023-03-11T19:40:59;99989.63;;;7.46;42.29
12213;BME280;6169;44.158;22.788;2023-03-11T19:46:03;99986.59;;;7.54;42.19
12213;BME280;6169;44.158;22.788;2023-03-11T19:51:08;99988.28;;;7.13;42.59
12213;BME280;6169;44.158;22.788;2023-03-11T19:56:12;100008.56;;;7.34;41.88
12213;BME280;6169;44.158;22.788;2023-03-11T20:01:16;100035.59;;;7.34;41.66
12213;BME280;6169;44.158;22.788;2023-03-11T20:06:21;100049.13;;;7.46;41.19
12213;BME280;6169;44.158;22.788;2023-03-11T20:11:23;100042.16;;;7.26;41.82
12213;BME280;6169;44.158;22.788;2023-03-11T20:16:26;100039.28;;;7.09;42.44
12213;BME280;6169;44.158;22.788;2023-03-11T20:21:29;100036.59;;;7.21;42.47
12213;BME280;6169;44.158;22.788;2023-03-11T20:26:32;100020.19;;;6.74;42.58
12213;BME280;6169;44.158;22.788;2023-03-11T20:31:34;100049.03;;;7.10;42.13
12213;BME280;6169;44.158;22.788;2023-03-11T20:36:38;99912.53;;;5.99;42.41
12213;BME280;6169;44.158;22.788;2023-03-11T20:41:40;100040.28;;;6.78;42.73
12213;BME280;6169;44.158;22.788;2023-03-11T20:46:43;100051.63;;;7.05;42.07
12213;BME280;6169;44.158;22.788;2023-03-11T20:51:47;100062.41;;;7.05;43.00
12213;BME280;6169;44.158;22.788;2023-03-11T20:56:49;100064.25;;;6.56;43.18
12213;BME280;6169;44.158;22.788;2023-03-11T21:01:51;100071.88;;;6.59;44.11
12213;BME280;6169;44.158;22.788;2023-03-11T21:06:55;100063.22;;;6.57;43.85
12213;BME280;6169;44.158;22.788;2023-03-11T21:11:57;100067.75;;;6.94;42.69
12213;BME280;6169;44.158;22.788;2023-03-11T21:17:00;100072.09;;;6.76;43.52
12213;BME280;6169;44.158;22.788;2023-03-11T21:22:04;100075.31;;;6.85;43.53
12213;BME280;6169;44.158;22.788;2023-03-11T21:27:07;100090.03;;;6.71;44.45
12213;BME280;6169;44.158;22.788;2023-03-11T21:32:09;100100.28;;;6.87;44.05
12213;BME280;6169;44.158;22.788;2023-03-11T21:37:13;100097.63;;;6.80;43.49
12213;BME280;6169;44.158;22.788;2023-03-11T21:42:16;100112.63;;;7.13;43.01
12213;BME280;6169;44.158;22.788;2023-03-11T21:47:18;100116.69;;;7.04;43.40
12213;BME280;6169;44.158;22.788;2023-03-11T21:52:22;100129.16;;;6.86;43.27
12213;BME280;6169;44.158;22.788;2023-03-11T21:57:24;100129.59;;;7.20;42.85
12213;BME280;6169;44.158;22.788;2023-03-11T22:02:26;100127.66;;;6.72;43.26
12213;BME280;6169;44.158;22.788;2023-03-11T22:07:30;100060.44;;;6.27;43.41
12213;BME280;6169;44.158;22.788;2023-03-11T22:12:32;100113.22;;;7.15;42.73
12213;BME280;6169;44.158;22.788;2023-03-11T22:17:35;100125.75;;;7.09;42.60
12213;BME280;6169;44.158;22.788;2023-03-11T22:22:39;100117.00;;;6.40;43.70
12213;BME280;6169;44.158;22.788;2023-03-11T22:27:41;100121.50;;;6.47;42.93
12213;BME280;6169;44.158;22.788;2023-03-11T22:32:43;100132.66;;;6.50;42.80
12213;BME280;6169;44.158;22.788;2023-03-11T22:37:47;100125.13;;;6.34;42.53
12213;BME280;6169;44.158;22.788;2023-03-11T22:42:49;100118.06;;;5.89;42.04
12213;BME280;6169;44.158;22.788;2023-03-11T22:47:51;100142.13;;;6.78;41.44
12213;BME280;6169;44.158;22.788;2023-03-11T22:52:55;100155.06;;;6.32;40.34
12213;BME280;6169;44.158;22.788;2023-03-11T22:57:58;100170.22;;;6.95;40.14
12213;BME280;6169;44.158;22.788;2023-03-11T23:03:00;100169.69;;;7.05;39.47
12213;BME280;6169;44.158;22.788;2023-03-11T23:08:04;100172.81;;;6.65;40.73
12213;BME280;6169;44.158;22.788;2023-03-11T23:13:06;100180.13;;;6.39;40.34
12213;BME280;6169;44.158;22.788;2023-03-11T23:18:09;100180.72;;;6.41;40.94
12213;BME280;6169;44.158;22.788;2023-03-11T23:23:13;100187.31;;;6.45;41.48
12213;BME280;6169;44.158;22.788;2023-03-11T23:28:15;100191.66;;;6.72;40.82
12213;BME280;6169;44.158;22.788;2023-03-11T23:33:18;100193.63;;;6.39;41.66
12213;BME280;6169;44.158;22.788;2023-03-11T23:38:21;100206.66;;;6.42;41.74
12213;BME280;6169;44.158;22.788;2023-03-11T23:43:24;100207.63;;;6.30;41.56
12213;BME280;6169;44.158;22.788;2023-03-11T23:48:26;100186.34;;;6.15;41.53
12213;BME280;6169;44.158;22.788;2023-03-11T23:53:31;100204.53;;;6.01;41.78
12213;BME280;6169;44.158;22.788;2023-03-11T23:58:33;100225.69;;;5.66;42.05
